Flight Track Log - Related Links

Times and Time Zones

All times are in EDT time to prevent confusion due to time zone crossing. See the TRS587 flight status page for this flight to view local times or setup timezone preferences in your user account.

Time Position Orientation Groundspeed Altitude Reporting Facility
EDT Latitude Longitude Course Direction KTS MPH feet Rate Location/Type
Wed 10:26:39 AM 28.4000 -81.3000 221° Southwest 167 192 800  Level Orlando TRACON
Wed 10:28:09 AM 28.3333 -81.3667 221° Southwest 276 318 3,400 2,028 Climbing Orlando TRACON
Wed 10:29:04 AM 28.3333 -81.4500 270° West 276 318 5,700 2,149 Climbing Orlando TRACON
Wed 10:31:30 AM 28.4786 -81.5322 334° Northwest 277 319 10,600 1,785 Climbing Jacksonville Center
Wed 10:32:29 AM 28.5750 -81.5475 352° North 307 353 11,800 1,462 Climbing Jacksonville Center
Wed 10:33:29 AM 28.6753 -81.5697 349° North 347 399 13,500 1,700 Climbing Jacksonville Center
Wed 10:34:29 AM 28.7797 -81.5897 350° North 370 426 15,200 1,700 Climbing Jacksonville Center
Wed 10:35:29 AM 28.8864 -81.6144 349° North 377 434 16,900 1,700 Climbing Jacksonville Center
Wed 10:36:29 AM 28.9972 -81.6367 350° North 391 450 18,600 1,650 Climbing Jacksonville Center
Wed 10:37:29 AM 29.1103 -81.6592 350° North 396 456 20,200 1,450 Climbing Jacksonville Center
Wed 10:38:29 AM 29.2253 -81.6814 350° North 411 473 21,500 1,450 Climbing Jacksonville Center
Wed 10:39:29 AM 29.3614 -81.7108 349° North 432 497 23,100 1,450 Climbing Jacksonville Center
Wed 10:40:29 AM 29.4825 -81.7378 349° North 444 511 24,400 1,350 Climbing Jacksonville Center
Wed 10:41:29 AM 29.6100 -81.7628 350° North 450 518 25,800 1,200 Climbing Jacksonville Center
Wed 10:42:29 AM 29.7336 -81.7875 350° North 450 518 26,800 1,050 Climbing Jacksonville Center
Wed 10:43:29 AM 29.8611 -81.8147 350° North 450 518 27,900 1,200 Climbing Jacksonville Center
Wed 10:44:29 AM 29.9867 -81.8422 349° North 450 518 29,200 1,300 Climbing Jacksonville Center
Wed 10:45:29 AM 30.1122 -81.8769 347° North 456 525 30,500 1,150 Climbing Jacksonville Center
Wed 10:46:29 AM 30.2317 -81.9261 340° North 450 518 31,500 1,200 Climbing Jacksonville Center
Wed 10:47:29 AM 30.3508 -81.9756 340° North 455 524 32,900 1,100 Climbing Jacksonville Center
Wed 10:48:29 AM 30.4722 -82.0250 341° North 455 524 33,700 1,050 Climbing Jacksonville Center
Wed 10:49:29 AM 30.5917 -82.0817 338° Northwest 460 529 35,000 650 Climbing Jacksonville Center
Wed 10:50:29 AM 30.7089 -82.1314 340° North 454 522 35,000  Level Jacksonville Center
Wed 10:51:29 AM 30.8261 -82.1814 340° North 449 517 35,000  Level Jacksonville Center
Wed 10:52:29 AM 30.9414 -82.2314 340° North 444 511 35,000  Level Jacksonville Center
Wed 10:53:29 AM 31.0542 -82.2742 342° North 438 504 35,000  Level Jacksonville Center
Wed 10:54:29 AM 31.1733 -82.3122 345° North 433 498 35,000  Level Jacksonville Center
Wed 10:55:29 AM 31.2886 -82.3578 341° North 433 498 35,000  Level Jacksonville Center
Wed 10:56:29 AM 31.4078 -82.3961 345° North 433 498 35,000  Level Jacksonville Center
Wed 10:58:56 AM 31.6828 -82.4942 343° North 448 516 35,000  Level Atlanta Center
Wed 10:59:56 AM 31.8022 -82.5361 343° North 443 510 35,000  Level Atlanta Center
Wed 11:00:56 AM 31.9175 -82.5781 343° North 443 510 35,000  Level Atlanta Center
Wed 11:01:56 AM 32.0347 -82.6203 343° North 443 510 35,000  Level Atlanta Center
Wed 11:02:56 AM 32.1500 -82.6603 344° North 443 510 35,000  Level Atlanta Center
Wed 11:03:56 AM 32.2675 -82.7025 343° North 443 510 35,000  Level Atlanta Center
Wed 11:04:56 AM 32.3828 -82.7500 341° North 443 510 35,000  Level Atlanta Center
Wed 11:05:56 AM 32.4981 -82.7903 344° North 443 510 35,000  Level Atlanta Center
Wed 11:06:56 AM 32.6194 -82.8378 342° North 425 489 35,000  Level Atlanta Center
Wed 11:07:56 AM 32.7347 -82.8783 344° North 425 489 35,000  Level Atlanta Center
Wed 11:08:56 AM 32.8519 -82.9186 344° North 431 496 35,000  Level Atlanta Center
Wed 11:09:56 AM 32.9692 -82.9642 342° North 436 502 35,000  Level Atlanta Center
Wed 11:10:56 AM 33.0761 -83.0050 342° North 436 502 35,000  Level Atlanta Center
Wed 11:11:56 AM 33.1953 -83.0508 342° North 443 510 35,000  Level Atlanta Center
Wed 11:12:56 AM 33.3125 -83.0942 343° North 443 510 35,000  Level Atlanta Center
Wed 11:13:56 AM 33.4339 -83.1353 344° North 443 510 35,000  Level Atlanta Center
Wed 11:14:56 AM 33.5469 -83.1789 342° North 438 504 35,000  Level Atlanta Center
Wed 11:15:56 AM 33.6664 -83.2253 342° North 443 510 35,000  Level Atlanta Center
Wed 11:16:56 AM 33.7919 -83.2714 343° North 443 510 35,000  Level Atlanta Center
Wed 11:17:56 AM 33.9089 -83.3153 343° North 437 503 35,000  Level Atlanta Center
Wed 11:18:56 AM 34.0261 -83.3594 343° North 442 509 35,000  Level Atlanta Center
Wed 11:19:56 AM 34.1411 -83.4039 342° North 442 509 35,000  Level Atlanta Center
Wed 11:20:56 AM 34.2583 -83.4481 343° North 442 509 35,000  Level Atlanta Center
Wed 11:21:56 AM 34.3733 -83.4928 342° North 437 503 35,000  Level Atlanta Center
Wed 11:22:56 AM 34.4903 -83.5347 344° North 442 509 35,000  Level Atlanta Center
Wed 11:23:56 AM 34.6053 -83.5794 342° North 436 502 35,000  Level Atlanta Center
Wed 11:24:56 AM 34.7222 -83.6242 343° North 436 502 35,000  Level Atlanta Center
Wed 11:25:56 AM 34.8372 -83.6692 342° North 436 502 35,000  Level Atlanta Center
Wed 11:26:56 AM 34.9417 -83.7119 341° North 441 507 35,000  Level Atlanta Center
Wed 11:27:56 AM 35.0586 -83.7572 342° North 441 507 35,000  Level Atlanta Center
Wed 11:28:56 AM 35.1736 -83.8025 342° North 441 507 35,000  Level Atlanta Center
Wed 11:29:56 AM 35.2883 -83.8453 343° North 441 507 35,000  Level Atlanta Center
Wed 11:30:56 AM 35.4031 -83.8936 341° North 441 507 35,000  Level Atlanta Center
Wed 11:31:56 AM 35.5158 -83.9367 343° North 436 502 35,000  Level Atlanta Center
Wed 11:32:56 AM 35.6328 -83.9800 343° North 436 502 35,000  Level Atlanta Center
Wed 11:33:56 AM 35.7475 -84.0286 341° North 436 502 35,000  Level Atlanta Center
Wed 11:34:56 AM 35.8622 -84.0747 342° North 436 502 35,000  Level Atlanta Center
Wed 11:36:38 AM 36.0686 -84.1556 342° North 439 505 35,000  Level Indianapolis Center
Wed 11:37:40 AM 36.1847 -84.2017 342° North 439 505 35,000  Level Indianapolis Center
Wed 11:38:42 AM 36.3011 -84.2483 342° North 441 507 35,000  Level Indianapolis Center
Wed 11:39:43 AM 36.4172 -84.2961 342° North 441 507 35,000  Level Indianapolis Center
Wed 11:40:45 AM 36.5347 -84.3436 342° North 440 506 35,000 488 Level Indianapolis Center
Wed 11:41:46 AM 36.6697 -84.3981 342° North 436 502 36,000 488 Climbing Indianapolis Center
Wed 11:42:48 AM 36.7850 -84.4442 342° North 434 499 36,000  Level Indianapolis Center
Wed 11:43:50 AM 36.8997 -84.4925 341° North 434 499 36,000  Level Indianapolis Center
Wed 11:44:51 AM 37.0158 -84.5403 342° North 439 505 36,000  Level Indianapolis Center
Wed 11:45:53 AM 37.1325 -84.5878 342° North 436 502 36,000  Level Indianapolis Center
Wed 11:46:55 AM 37.2481 -84.6361 342° North 435 501 36,000  Level Indianapolis Center
Wed 11:47:56 AM 37.3631 -84.6825 342° North 432 497 36,000  Level Indianapolis Center
Wed 11:48:58 AM 37.4764 -84.7303 342° North 427 491 36,000  Level Indianapolis Center
Wed 11:50:00 AM 37.6075 -84.7861 341° North 424 488 36,000  Level Indianapolis Center
Wed 11:51:01 AM 37.7203 -84.8328 342° North 424 488 36,000  Level Indianapolis Center
Wed 11:52:03 AM 37.8336 -84.8806 342° North 427 491 36,000  Level Indianapolis Center
Wed 11:53:05 AM 37.9475 -84.9275 342° North 429 494 36,000  Level Indianapolis Center
Wed 11:54:07 AM 38.0611 -84.9758 341° North 429 494 36,000  Level Indianapolis Center
Wed 11:55:08 AM 38.1772 -85.0222 343° North 435 501 36,000  Level Indianapolis Center
Wed 11:56:10 AM 38.2889 -85.0711 341° North 427 491 36,000  Level Indianapolis Center
Wed 11:57:12 AM 38.4219 -85.1281 341° North 429 494 36,000  Level Indianapolis Center
Wed 11:58:13 AM 38.5344 -85.1772 341° North 428 493 36,000  Level Indianapolis Center
Wed 11:59:15 AM 38.6383 -85.2203 342° North 430 495 36,000  Level Indianapolis Center
Wed 12:00:17 PM 38.7669 -85.2767 341° North 428 493 36,000 -387 Level Indianapolis Center
Wed 12:01:19 PM 38.8797 -85.3264 341° North 429 494 35,200 -878 Descending Indianapolis Center
Wed 12:02:20 PM 38.9911 -85.3733 342° North 425 489 34,200 -927 Descending Indianapolis Center
Wed 12:03:22 PM 39.0997 -85.4211 341° North 417 480 33,300 -919 Descending Indianapolis Center
Wed 12:04:24 PM 39.2106 -85.4703 341° North 422 486 32,300 -968 Descending Indianapolis Center
Wed 12:05:26 PM 39.3233 -85.5186 342° North 427 491 31,300 -1,073 Descending Indianapolis Center
Wed 12:06:27 PM 39.4600 -85.5789 341° North 434 499 30,100 -878 Descending Indianapolis Center
Wed 12:07:29 PM 39.5747 -85.6294 341° North 438 504 29,500 -823 Descending Indianapolis Center
Wed 12:08:31 PM 39.6864 -85.6789 341° North 432 497 28,400 -732 Descending Indianapolis Center
Wed 12:09:32 PM 39.7947 -85.7283 341° North 422 486 28,000 -1,024 Descending Indianapolis Center
Wed 12:10:34 PM 39.9017 -85.7758 341° North 415 478 26,300 -1,935 Descending Indianapolis Center
Wed 12:11:36 PM 40.0272 -85.8306 342° North 404 465 24,000 -1,113 Descending Indianapolis Center
Wed 12:12:38 PM 40.1292 -85.8775 341° North 395 455 24,000  Level Indianapolis Center
Wed 12:13:08 PM 40.1692 -85.8986 338° Northwest 395 455 24,000  Level Chicago Center
Wed 12:14:10 PM 40.2881 -85.9694 336° Northwest 393 452 24,000 -288 Level Chicago Center
Wed 12:15:13 PM 40.3878 -86.0294 335° Northwest 395 455 23,400 -768 Descending Chicago Center
Wed 12:16:15 PM 40.4853 -86.0878 336° Northwest 389 448 22,400 -968 Descending Chicago Center
Wed 12:17:17 PM 40.5825 -86.1472 335° Northwest 388 447 21,400 -1,016 Descending Chicago Center
Wed 12:18:19 PM 40.6778 -86.2067 335° Northwest 382 440 20,300 -1,935 Descending Chicago Center
Wed 12:19:21 PM 40.7878 -86.2725 336° Northwest 369 425 17,400 -2,516 Descending Chicago Center
Wed 12:20:23 PM 40.8744 -86.3261 335° Northwest 350 403 15,100 -2,129 Descending Chicago Center
Wed 12:21:25 PM 40.9581 -86.3758 336° Northwest 336 387 13,000 -1,935 Descending Chicago Center
Wed 12:22:27 PM 41.0408 -86.4283 334° Northwest 331 381 11,100 -1,258 Descending Chicago Center
Wed 12:23:29 PM 41.1061 -86.5208 313° West 342 394 10,400 -532 Descending Chicago Center
Wed 12:24:31 PM 41.1658 -86.6125 311° West 333 383 10,000 -242 Descending Chicago Center
Wed 12:25:33 PM 41.2258 -86.7042 311° West 329 379 9,900 -339 Descending Chicago Center
Wed 12:26:35 PM 41.2847 -86.7969 310° West 283 326 9,300 -912 Descending Chicago Center
Wed 12:27:38 PM 41.3322 -86.8725 310° West 271 312 8,000 -1,248 Descending Chicago Center
Wed 12:28:40 PM 41.3814 -86.9481 311° West 272 313 6,700 -1,016 Descending Chicago Center
Wed 12:29:42 PM 41.4281 -87.0225 310° West 267 307 5,900 -339 Descending Chicago Center
Wed 12:30:44 PM 41.4875 -87.1128 311° West 270 311 6,000 48 Climbing Chicago Center
Wed 12:31:46 PM 41.5161 -87.2069 292° West 267 307 6,000 -339 Level Chicago Center
Wed 12:32:48 PM 41.5236 -87.3017 276° West 266 306 5,300 -823 Descending Chicago Center
Wed 12:33:50 PM 41.5297 -87.3936 275° West 266 306 4,300 -677 Descending Chicago Center
Wed 12:34:52 PM 41.5411 -87.4869 279° West 261 300 3,900 -145 Descending Chicago Center
Wed 12:35:54 PM 41.5489 -87.6006 275° West 259 298 4,000 48 Climbing Chicago Center
Wed 12:36:56 PM 41.5556 -87.6956 275° West 259 298 4,000 -242 Level Chicago Center
Wed 12:37:58 PM 41.5619 -87.7903 275° West 260 299 3,500 -532 Descending Chicago Center
Wed 12:39:00 PM 41.5922 -87.8653 298° West 245 282 2,900 -240 Descending Chicago Center
Wed 12:40:03 PM 41.6508 -87.9022 335° Northwest 227 261 3,000  Climbing Chicago Center
Wed 12:41:05 PM 41.6919 -87.8706 30° Northeast 192 221 2,900 -435 Descending Chicago Center
Wed 12:42:07 PM 41.7242 -87.8297 43° Northeast 173 199 2,100 -726 Descending Chicago Center
Wed 12:43:09 PM 41.7511 -87.7958 43° Northeast 154 177 1,400 -532 Descending Chicago Center
Wed 12:44:11 PM 41.7806 -87.7581 44° Northeast 143 165 1,000 -387 Descending Chicago Center

Login

Don't have an account? Register now (free) for customized features, flight alerts, and more!